sensor_id;sensor_type;location;lat;lon;timestamp;temperature;humidity
68257;DHT22;55069;51.568;4.656;2024-01-30T00:01:13;7.26;96.22
68257;DHT22;55069;51.568;4.656;2024-01-30T00:03:38;7.26;96.22
68257;DHT22;55069;51.568;4.656;2024-01-30T00:06:04;7.28;96.29
68257;DHT22;55069;51.568;4.656;2024-01-30T00:08:29;7.25;96.32
68257;DHT22;55069;51.568;4.656;2024-01-30T00:10:55;7.26;96.43
68257;DHT22;55069;51.568;4.656;2024-01-30T00:13:20;7.28;96.45
68257;DHT22;55069;51.568;4.656;2024-01-30T00:15:46;7.32;96.48
68257;DHT22;55069;51.568;4.656;2024-01-30T00:18:12;7.32;96.47
68257;DHT22;55069;51.568;4.656;2024-01-30T00:20:37;7.45;96.33
68257;DHT22;55069;51.568;4.656;2024-01-30T00:23:03;7.49;96.19
68257;DHT22;55069;51.568;4.656;2024-01-30T00:25:29;7.52;96.27
68257;DHT22;55069;51.568;4.656;2024-01-30T00:27:56;7.54;96.21
68257;DHT22;55069;51.568;4.656;2024-01-30T00:30:21;7.60;96.08
68257;DHT22;55069;51.568;4.656;2024-01-30T00:32:47;7.57;96.06
68257;DHT22;55069;51.568;4.656;2024-01-30T00:35:12;7.63;95.87
68257;DHT22;55069;51.568;4.656;2024-01-30T00:37:38;7.67;95.71
68257;DHT22;55069;51.568;4.656;2024-01-30T00:40:04;7.67;95.70
68257;DHT22;55069;51.568;4.656;2024-01-30T00:42:31;7.71;95.49
68257;DHT22;55069;51.568;4.656;2024-01-30T00:44:57;7.71;95.36
68257;DHT22;55069;51.568;4.656;2024-01-30T00:47:23;7.74;95.43
68257;DHT22;55069;51.568;4.656;2024-01-30T00:49:48;7.80;95.30
68257;DHT22;55069;51.568;4.656;2024-01-30T00:52:14;7.78;95.30
68257;DHT22;55069;51.568;4.656;2024-01-30T00:54:41;7.81;95.28
68257;DHT22;55069;51.568;4.656;2024-01-30T00:57:07;7.80;95.35
68257;DHT22;55069;51.568;4.656;2024-01-30T00:59:32;7.85;95.31
68257;DHT22;55069;51.568;4.656;2024-01-30T01:01:58;7.90;95.24
68257;DHT22;55069;51.568;4.656;2024-01-30T01:04:23;7.91;95.22
68257;DHT22;55069;51.568;4.656;2024-01-30T01:06:49;7.99;95.03
68257;DHT22;55069;51.568;4.656;2024-01-30T01:09:15;8.04;95.05
68257;DHT22;55069;51.568;4.656;2024-01-30T01:11:40;7.98;95.06
68257;DHT22;55069;51.568;4.656;2024-01-30T01:14:06;8.06;95.02
68257;DHT22;55069;51.568;4.656;2024-01-30T01:16:33;8.05;94.99
68257;DHT22;55069;51.568;4.656;2024-01-30T01:18:58;8.08;94.93
68257;DHT22;55069;51.568;4.656;2024-01-30T01:21:25;8.09;94.94
68257;DHT22;55069;51.568;4.656;2024-01-30T01:23:51;8.09;94.90
68257;DHT22;55069;51.568;4.656;2024-01-30T01:26:16;8.05;94.85
68257;DHT22;55069;51.568;4.656;2024-01-30T01:28:42;8.01;94.84
68257;DHT22;55069;51.568;4.656;2024-01-30T01:31:07;8.06;94.75
68257;DHT22;55069;51.568;4.656;2024-01-30T01:33:33;8.01;94.70
68257;DHT22;55069;51.568;4.656;2024-01-30T01:35:59;8.02;94.67
68257;DHT22;55069;51.568;4.656;2024-01-30T01:38:28;7.95;94.70
68257;DHT22;55069;51.568;4.656;2024-01-30T01:40:53;7.90;94.74
68257;DHT22;55069;51.568;4.656;2024-01-30T01:43:19;7.85;94.81
68257;DHT22;55069;51.568;4.656;2024-01-30T01:45:45;7.85;95.03
68257;DHT22;55069;51.568;4.656;2024-01-30T01:48:10;7.80;95.01
68257;DHT22;55069;51.568;4.656;2024-01-30T01:50:38;7.81;95.13
68257;DHT22;55069;51.568;4.656;2024-01-30T01:53:05;7.78;95.24
68257;DHT22;55069;51.568;4.656;2024-01-30T01:55:32;7.77;95.29
68257;DHT22;55069;51.568;4.656;2024-01-30T01:57:58;7.80;95.26
68257;DHT22;55069;51.568;4.656;2024-01-30T02:00:24;7.75;95.25
68257;DHT22;55069;51.568;4.656;2024-01-30T02:02:50;7.71;95.39
68257;DHT22;55069;51.568;4.656;2024-01-30T02:05:16;7.73;95.36
68257;DHT22;55069;51.568;4.656;2024-01-30T02:07:42;7.67;95.35
68257;DHT22;55069;51.568;4.656;2024-01-30T02:10:09;7.67;95.41
68257;DHT22;55069;51.568;4.656;2024-01-30T02:12:37;7.71;95.40
68257;DHT22;55069;51.568;4.656;2024-01-30T02:15:04;7.71;95.37
68257;DHT22;55069;51.568;4.656;2024-01-30T02:17:30;7.67;95.40
68257;DHT22;55069;51.568;4.656;2024-01-30T02:19:56;7.75;95.16
68257;DHT22;55069;51.568;4.656;2024-01-30T02:22:22;7.75;95.09
68257;DHT22;55069;51.568;4.656;2024-01-30T02:24:48;7.69;95.10
68257;DHT22;55069;51.568;4.656;2024-01-30T02:27:13;7.71;95.18
68257;DHT22;55069;51.568;4.656;2024-01-30T02:29:39;7.70;95.38
68257;DHT22;55069;51.568;4.656;2024-01-30T02:32:04;7.73;95.37
68257;DHT22;55069;51.568;4.656;2024-01-30T02:34:31;7.75;95.37
68257;DHT22;55069;51.568;4.656;2024-01-30T02:36:56;7.81;95.18
68257;DHT22;55069;51.568;4.656;2024-01-30T02:39:22;7.78;95.16
68257;DHT22;55069;51.568;4.656;2024-01-30T02:41:47;7.81;95.13
68257;DHT22;55069;51.568;4.656;2024-01-30T02:44:13;7.78;95.07
68257;DHT22;55069;51.568;4.656;2024-01-30T02:46:38;7.80;95.09
68257;DHT22;55069;51.568;4.656;2024-01-30T02:49:04;7.77;95.11
68257;DHT22;55069;51.568;4.656;2024-01-30T02:51:29;7.71;95.13
68257;DHT22;55069;51.568;4.656;2024-01-30T02:53:55;7.71;95.23
68257;DHT22;55069;51.568;4.656;2024-01-30T02:56:20;7.74;95.35
68257;DHT22;55069;51.568;4.656;2024-01-30T02:58:46;7.78;95.32
68257;DHT22;55069;51.568;4.656;2024-01-30T03:01:11;7.77;95.36
68257;DHT22;55069;51.568;4.656;2024-01-30T03:03:37;7.78;95.34
68257;DHT22;55069;51.568;4.656;2024-01-30T03:06:02;7.84;95.31
68257;DHT22;55069;51.568;4.656;2024-01-30T03:08:28;7.87;95.32
68257;DHT22;55069;51.568;4.656;2024-01-30T03:10:54;7.94;95.20
68257;DHT22;55069;51.568;4.656;2024-01-30T03:13:19;8.02;95.19
68257;DHT22;55069;51.568;4.656;2024-01-30T03:15:45;8.02;95.14
68257;DHT22;55069;51.568;4.656;2024-01-30T03:18:10;8.06;95.04
68257;DHT22;55069;51.568;4.656;2024-01-30T03:20:36;8.11;95.02
68257;DHT22;55069;51.568;4.656;2024-01-30T03:23:01;8.14;94.99
68257;DHT22;55069;51.568;4.656;2024-01-30T03:25:28;8.21;94.84
68257;DHT22;55069;51.568;4.656;2024-01-30T03:27:53;8.21;94.87
68257;DHT22;55069;51.568;4.656;2024-01-30T03:30:19;8.22;94.84
68257;DHT22;55069;51.568;4.656;2024-01-30T03:32:44;8.31;94.67
68257;DHT22;55069;51.568;4.656;2024-01-30T03:35:10;8.45;94.33
68257;DHT22;55069;51.568;4.656;2024-01-30T03:37:35;8.45;94.34
68257;DHT22;55069;51.568;4.656;2024-01-30T03:40:02;8.48;94.21
68257;DHT22;55069;51.568;4.656;2024-01-30T03:42:27;8.46;94.08
68257;DHT22;55069;51.568;4.656;2024-01-30T03:44:53;8.45;94.23
68257;DHT22;55069;51.568;4.656;2024-01-30T03:47:20;8.43;94.22
68257;DHT22;55069;51.568;4.656;2024-01-30T03:49:46;8.46;94.19
68257;DHT22;55069;51.568;4.656;2024-01-30T03:52:12;8.43;94.27
68257;DHT22;55069;51.568;4.656;2024-01-30T03:54:37;8.46;94.26
68257;DHT22;55069;51.568;4.656;2024-01-30T03:57:03;8.45;94.27
68257;DHT22;55069;51.568;4.656;2024-01-30T03:59:29;8.45;94.34
68257;DHT22;55069;51.568;4.656;2024-01-30T04:01:54;8.46;94.32
68257;DHT22;55069;51.568;4.656;2024-01-30T04:04:20;8.46;94.31
68257;DHT22;55069;51.568;4.656;2024-01-30T04:06:46;8.49;94.21
68257;DHT22;55069;51.568;4.656;2024-01-30T04:09:12;8.48;94.28
68257;DHT22;55069;51.568;4.656;2024-01-30T04:11:41;8.46;94.28
68257;DHT22;55069;51.568;4.656;2024-01-30T04:14:08;8.45;94.28
68257;DHT22;55069;51.568;4.656;2024-01-30T04:16:33;8.41;94.40
68257;DHT22;55069;51.568;4.656;2024-01-30T04:18:59;8.41;94.49
68257;DHT22;55069;51.568;4.656;2024-01-30T04:21:25;8.41;94.54
68257;DHT22;55069;51.568;4.656;2024-01-30T04:23:51;8.43;94.50
68257;DHT22;55069;51.568;4.656;2024-01-30T04:26:17;8.39;94.54
68257;DHT22;55069;51.568;4.656;2024-01-30T04:28:44;8.36;94.58
68257;DHT22;55069;51.568;4.656;2024-01-30T04:31:10;8.38;94.60
68257;DHT22;55069;51.568;4.656;2024-01-30T04:33:36;8.38;94.57
68257;DHT22;55069;51.568;4.656;2024-01-30T04:36:01;8.36;94.66
68257;DHT22;55069;51.568;4.656;2024-01-30T04:38:27;8.39;94.66
68257;DHT22;55069;51.568;4.656;2024-01-30T04:40:52;8.36;94.76
68257;DHT22;55069;51.568;4.656;2024-01-30T04:43:18;8.33;94.72
68257;DHT22;55069;51.568;4.656;2024-01-30T04:45:44;8.36;94.79
68257;DHT22;55069;51.568;4.656;2024-01-30T04:48:10;8.39;94.73
68257;DHT22;55069;51.568;4.656;2024-01-30T04:50:35;8.39;94.74
68257;DHT22;55069;51.568;4.656;2024-01-30T04:53:01;8.39;94.77
68257;DHT22;55069;51.568;4.656;2024-01-30T04:55:27;8.36;94.81
68257;DHT22;55069;51.568;4.656;2024-01-30T04:57:52;8.39;94.90
68257;DHT22;55069;51.568;4.656;2024-01-30T05:00:18;8.36;94.93
68257;DHT22;55069;51.568;4.656;2024-01-30T05:02:44;8.42;94.92
68257;DHT22;55069;51.568;4.656;2024-01-30T05:05:09;8.43;94.96
68257;DHT22;55069;51.568;4.656;2024-01-30T05:07:35;8.49;94.96
68257;DHT22;55069;51.568;4.656;2024-01-30T05:10:00;8.49;95.04
68257;DHT22;55069;51.568;4.656;2024-01-30T05:12:26;8.52;94.96
68257;DHT22;55069;51.568;4.656;2024-01-30T05:14:52;8.53;94.98
68257;DHT22;55069;51.568;4.656;2024-01-30T05:17:17;8.59;94.89
68257;DHT22;55069;51.568;4.656;2024-01-30T05:19:43;8.59;94.97
68257;DHT22;55069;51.568;4.656;2024-01-30T05:22:09;8.56;94.97
68257;DHT22;55069;51.568;4.656;2024-01-30T05:24:36;8.57;94.95
68257;DHT22;55069;51.568;4.656;2024-01-30T05:27:01;8.63;94.91
68257;DHT22;55069;51.568;4.656;2024-01-30T05:29:27;8.67;94.85
68257;DHT22;55069;51.568;4.656;2024-01-30T05:31:53;8.71;94.72
68257;DHT22;55069;51.568;4.656;2024-01-30T05:34:18;8.76;94.64
68257;DHT22;55069;51.568;4.656;2024-01-30T05:36:44;8.71;94.61
68257;DHT22;55069;51.568;4.656;2024-01-30T05:39:09;8.74;94.57
68257;DHT22;55069;51.568;4.656;2024-01-30T05:41:35;8.81;94.56
68257;DHT22;55069;51.568;4.656;2024-01-30T05:44:01;8.80;94.46
68257;DHT22;55069;51.568;4.656;2024-01-30T05:46:27;8.83;94.45
68257;DHT22;55069;51.568;4.656;2024-01-30T05:48:52;8.88;94.44
68257;DHT22;55069;51.568;4.656;2024-01-30T05:51:18;8.84;94.42
68257;DHT22;55069;51.568;4.656;2024-01-30T05:53:43;8.87;94.52
68257;DHT22;55069;51.568;4.656;2024-01-30T05:56:09;8.91;94.41
68257;DHT22;55069;51.568;4.656;2024-01-30T05:58:34;8.90;94.41
68257;DHT22;55069;51.568;4.656;2024-01-30T06:01:00;8.88;94.44
68257;DHT22;55069;51.568;4.656;2024-01-30T06:03:25;8.91;94.52
68257;DHT22;55069;51.568;4.656;2024-01-30T06:05:51;8.88;94.47
68257;DHT22;55069;51.568;4.656;2024-01-30T06:08:17;8.91;94.52
68257;DHT22;55069;51.568;4.656;2024-01-30T06:10:43;8.97;94.44
68257;DHT22;55069;51.568;4.656;2024-01-30T06:13:08;8.92;94.40
68257;DHT22;55069;51.568;4.656;2024-01-30T06:15:34;8.97;94.43
68257;DHT22;55069;51.568;4.656;2024-01-30T06:17:59;8.96;94.37
68257;DHT22;55069;51.568;4.656;2024-01-30T06:20:25;8.97;94.44
68257;DHT22;55069;51.568;4.656;2024-01-30T06:22:50;8.96;94.43
68257;DHT22;55069;51.568;4.656;2024-01-30T06:25:16;9.07;94.46
68257;DHT22;55069;51.568;4.656;2024-01-30T06:27:42;9.15;94.16
68257;DHT22;55069;51.568;4.656;2024-01-30T06:30:08;9.18;94.12
68257;DHT22;55069;51.568;4.656;2024-01-30T06:32:35;9.21;93.94
68257;DHT22;55069;51.568;4.656;2024-01-30T06:35:01;9.22;93.97
68257;DHT22;55069;51.568;4.656;2024-01-30T06:37:27;9.25;94.01
68257;DHT22;55069;51.568;4.656;2024-01-30T06:39:52;9.27;94.03
68257;DHT22;55069;51.568;4.656;2024-01-30T06:42:18;9.28;93.99
68257;DHT22;55069;51.568;4.656;2024-01-30T06:44:44;9.25;94.05
68257;DHT22;55069;51.568;4.656;2024-01-30T06:47:10;9.25;94.11
68257;DHT22;55069;51.568;4.656;2024-01-30T06:49:36;9.28;94.05
68257;DHT22;55069;51.568;4.656;2024-01-30T06:52:06;9.21;94.12
68257;DHT22;55069;51.568;4.656;2024-01-30T06:54:32;9.29;93.98
68257;DHT22;55069;51.568;4.656;2024-01-30T06:56:58;9.32;94.00
68257;DHT22;55069;51.568;4.656;2024-01-30T06:59:24;9.42;93.84
68257;DHT22;55069;51.568;4.656;2024-01-30T07:01:49;9.45;93.78
68257;DHT22;55069;51.568;4.656;2024-01-30T07:04:15;9.46;93.77
68257;DHT22;55069;51.568;4.656;2024-01-30T07:06:41;9.55;93.64
68257;DHT22;55069;51.568;4.656;2024-01-30T07:09:07;9.59;93.54
68257;DHT22;55069;51.568;4.656;2024-01-30T07:11:32;9.60;93.45
68257;DHT22;55069;51.568;4.656;2024-01-30T07:13:58;9.65;93.37
68257;DHT22;55069;51.568;4.656;2024-01-30T07:16:23;9.62;93.43
68257;DHT22;55069;51.568;4.656;2024-01-30T07:18:49;9.66;93.28
68257;DHT22;55069;51.568;4.656;2024-01-30T07:21:15;9.69;93.40
68257;DHT22;55069;51.568;4.656;2024-01-30T07:23:40;9.70;93.45
68257;DHT22;55069;51.568;4.656;2024-01-30T07:26:07;9.72;93.34
68257;DHT22;55069;51.568;4.656;2024-01-30T07:28:34;9.70;93.39
68257;DHT22;55069;51.568;4.656;2024-01-30T07:31:00;9.73;93.37
68257;DHT22;55069;51.568;4.656;2024-01-30T07:33:25;9.73;93.37
68257;DHT22;55069;51.568;4.656;2024-01-30T07:35:54;9.79;93.42
68257;DHT22;55069;51.568;4.656;2024-01-30T07:38:20;9.79;93.35
68257;DHT22;55069;51.568;4.656;2024-01-30T07:40:45;9.83;93.32
68257;DHT22;55069;51.568;4.656;2024-01-30T07:43:11;9.93;93.15
68257;DHT22;55069;51.568;4.656;2024-01-30T07:45:37;9.91;93.10
68257;DHT22;55069;51.568;4.656;2024-01-30T07:48:05;9.97;93.05
68257;DHT22;55069;51.568;4.656;2024-01-30T07:50:30;10.00;93.09
68257;DHT22;55069;51.568;4.656;2024-01-30T07:52:56;10.08;92.78
68257;DHT22;55069;51.568;4.656;2024-01-30T07:55:22;10.13;92.70
68257;DHT22;55069;51.568;4.656;2024-01-30T07:57:54;10.17;92.61
68257;DHT22;55069;51.568;4.656;2024-01-30T08:00:21;10.20;92.69
68257;DHT22;55069;51.568;4.656;2024-01-30T08:02:52;10.25;92.51
68257;DHT22;55069;51.568;4.656;2024-01-30T08:05:21;10.31;92.45
68257;DHT22;55069;51.568;4.656;2024-01-30T08:07:48;10.31;92.27
68257;DHT22;55069;51.568;4.656;2024-01-30T08:10:14;10.30;92.35
68257;DHT22;55069;51.568;4.656;2024-01-30T08:12:39;10.38;92.29
68257;DHT22;55069;51.568;4.656;2024-01-30T08:15:05;10.45;92.21
68257;DHT22;55069;51.568;4.656;2024-01-30T08:17:31;10.38;92.33
68257;DHT22;55069;51.568;4.656;2024-01-30T08:19:56;10.42;92.27
68257;DHT22;55069;51.568;4.656;2024-01-30T08:22:22;10.42;92.37
68257;DHT22;55069;51.568;4.656;2024-01-30T08:24:47;10.40;92.43
68257;DHT22;55069;51.568;4.656;2024-01-30T08:27:13;10.42;92.37
68257;DHT22;55069;51.568;4.656;2024-01-30T08:29:38;10.45;92.23
68257;DHT22;55069;51.568;4.656;2024-01-30T08:32:05;10.44;92.44
68257;DHT22;55069;51.568;4.656;2024-01-30T08:34:31;10.46;92.27
68257;DHT22;55069;51.568;4.656;2024-01-30T08:36:57;10.55;92.21
68257;DHT22;55069;51.568;4.656;2024-01-30T08:39:23;10.56;92.12
68257;DHT22;55069;51.568;4.656;2024-01-30T08:41:48;10.53;92.33
68257;DHT22;55069;51.568;4.656;2024-01-30T08:44:14;10.51;92.47
68257;DHT22;55069;51.568;4.656;2024-01-30T08:46:40;10.53;92.29
68257;DHT22;55069;51.568;4.656;2024-01-30T08:49:05;10.63;92.23
68257;DHT22;55069;51.568;4.656;2024-01-30T08:51:31;10.63;92.10
68257;DHT22;55069;51.568;4.656;2024-01-30T08:53:56;10.66;92.19
68257;DHT22;55069;51.568;4.656;2024-01-30T08:56:22;10.68;92.13
68257;DHT22;55069;51.568;4.656;2024-01-30T08:58:47;10.68;92.14
68257;DHT22;55069;51.568;4.656;2024-01-30T09:01:13;10.71;92.27
68257;DHT22;55069;51.568;4.656;2024-01-30T09:03:39;10.72;92.16
68257;DHT22;55069;51.568;4.656;2024-01-30T09:06:10;10.76;92.07
68257;DHT22;55069;51.568;4.656;2024-01-30T09:08:35;10.72;92.16
68257;DHT22;55069;51.568;4.656;2024-01-30T09:11:09;10.79;92.07
68257;DHT22;55069;51.568;4.656;2024-01-30T09:13:35;10.86;91.95
68257;DHT22;55069;51.568;4.656;2024-01-30T09:16:00;10.90;91.93
68257;DHT22;55069;51.568;4.656;2024-01-30T09:18:26;10.90;91.84
68257;DHT22;55069;51.568;4.656;2024-01-30T09:20:51;10.96;91.71
68257;DHT22;55069;51.568;4.656;2024-01-30T09:23:17;10.95;91.79
68257;DHT22;55069;51.568;4.656;2024-01-30T09:25:44;10.93;91.72
68257;DHT22;55069;51.568;4.656;2024-01-30T09:28:09;11.01;91.66
68257;DHT22;55069;51.568;4.656;2024-01-30T09:30:35;11.01;91.52
68257;DHT22;55069;51.568;4.656;2024-01-30T09:33:00;11.10;91.35
68257;DHT22;55069;51.568;4.656;2024-01-30T09:35:26;11.06;91.38
68257;DHT22;55069;51.568;4.656;2024-01-30T09:37:52;11.11;91.45
68257;DHT22;55069;51.568;4.656;2024-01-30T09:40:18;11.21;91.28
68257;DHT22;55069;51.568;4.656;2024-01-30T09:42:46;11.17;91.29
68257;DHT22;55069;51.568;4.656;2024-01-30T09:45:14;11.23;91.18
68257;DHT22;55069;51.568;4.656;2024-01-30T09:47:41;11.26;91.07
68257;DHT22;55069;51.568;4.656;2024-01-30T09:50:14;11.21;91.16
68257;DHT22;55069;51.568;4.656;2024-01-30T09:52:40;11.23;91.15
68257;DHT22;55069;51.568;4.656;2024-01-30T09:55:06;11.20;91.16
68257;DHT22;55069;51.568;4.656;2024-01-30T09:57:32;11.11;91.36
68257;DHT22;55069;51.568;4.656;2024-01-30T09:59:58;11.14;91.39
68257;DHT22;55069;51.568;4.656;2024-01-30T10:02:24;11.17;91.13
68257;DHT22;55069;51.568;4.656;2024-01-30T10:04:51;11.23;91.12
68257;DHT22;55069;51.568;4.656;2024-01-30T10:07:20;11.28;90.93
68257;DHT22;55069;51.568;4.656;2024-01-30T10:09:46;11.30;90.55
68257;DHT22;55069;51.568;4.656;2024-01-30T10:12:12;11.39;90.43
68257;DHT22;55069;51.568;4.656;2024-01-30T10:14:41;11.48;90.30
68257;DHT22;55069;51.568;4.656;2024-01-30T10:17:11;11.61;89.57
68257;DHT22;55069;51.568;4.656;2024-01-30T10:19:41;11.74;89.12
68257;DHT22;55069;51.568;4.656;2024-01-30T10:22:07;11.75;87.72
68257;DHT22;55069;51.568;4.656;2024-01-30T10:24:33;11.83;88.14
68257;DHT22;55069;51.568;4.656;2024-01-30T10:26:59;11.85;87.25
68257;DHT22;55069;51.568;4.656;2024-01-30T10:29:25;11.92;87.14
68257;DHT22;55069;51.568;4.656;2024-01-30T10:32:04;11.93;86.65
68257;DHT22;55069;51.568;4.656;2024-01-30T10:34:30;11.81;86.25
68257;DHT22;55069;51.568;4.656;2024-01-30T10:37:09;11.76;86.70
68257;DHT22;55069;51.568;4.656;2024-01-30T10:39:41;11.81;86.85
68257;DHT22;55069;51.568;4.656;2024-01-30T10:42:12;11.75;86.63
68257;DHT22;55069;51.568;4.656;2024-01-30T10:47:22;11.61;85.07
68257;DHT22;55069;51.568;4.656;2024-01-30T10:49:51;11.59;85.06
68257;DHT22;55069;51.568;4.656;2024-01-30T10:52:17;11.68;84.16
68257;DHT22;55069;51.568;4.656;2024-01-30T10:54:44;11.66;83.67
68257;DHT22;55069;51.568;4.656;2024-01-30T10:57:10;11.59;83.33
68257;DHT22;55069;51.568;4.656;2024-01-30T10:59:36;11.48;83.99
68257;DHT22;55069;51.568;4.656;2024-01-30T11:02:02;11.38;83.86
68257;DHT22;55069;51.568;4.656;2024-01-30T11:04:40;11.39;84.26
68257;DHT22;55069;51.568;4.656;2024-01-30T11:07:23;11.31;84.42
68257;DHT22;55069;51.568;4.656;2024-01-30T11:12:24;11.06;84.41
68257;DHT22;55069;51.568;4.656;2024-01-30T11:15:03;11.10;84.62
68257;DHT22;55069;51.568;4.656;2024-01-30T11:20:27;10.96;84.95
68257;DHT22;55069;51.568;4.656;2024-01-30T11:22:55;10.96;85.56
68257;DHT22;55069;51.568;4.656;2024-01-30T11:25:21;10.93;86.05
68257;DHT22;55069;51.568;4.656;2024-01-30T11:27:50;10.95;86.20
68257;DHT22;55069;51.568;4.656;2024-01-30T11:30:30;10.84;85.53
68257;DHT22;55069;51.568;4.656;2024-01-30T11:33:02;10.80;85.43
68257;DHT22;55069;51.568;4.656;2024-01-30T11:35:35;10.71;85.87
68257;DHT22;55069;51.568;4.656;2024-01-30T11:38:02;10.68;85.61
68257;DHT22;55069;51.568;4.656;2024-01-30T11:40:29;10.61;85.13
68257;DHT22;55069;51.568;4.656;2024-01-30T11:42:56;10.59;84.94
68257;DHT22;55069;51.568;4.656;2024-01-30T11:45:22;10.65;84.81
68257;DHT22;55069;51.568;4.656;2024-01-30T11:47:48;10.65;84.20
68257;DHT22;55069;51.568;4.656;2024-01-30T11:50:13;10.62;84.32
68257;DHT22;55069;51.568;4.656;2024-01-30T11:52:40;10.56;84.66
68257;DHT22;55069;51.568;4.656;2024-01-30T11:55:06;10.53;83.85
68257;DHT22;55069;51.568;4.656;2024-01-30T11:57:33;10.52;83.99
68257;DHT22;55069;51.568;4.656;2024-01-30T12:00:01;10.49;84.13
68257;DHT22;55069;51.568;4.656;2024-01-30T12:02:29;10.45;83.98
68257;DHT22;55069;51.568;4.656;2024-01-30T12:04:55;10.38;84.09
68257;DHT22;55069;51.568;4.656;2024-01-30T12:07:20;10.41;84.31
68257;DHT22;55069;51.568;4.656;2024-01-30T12:09:53;10.38;85.75
68257;DHT22;55069;51.568;4.656;2024-01-30T12:12:22;10.37;84.37
68257;DHT22;55069;51.568;4.656;2024-01-30T12:14:48;10.32;83.99
68257;DHT22;55069;51.568;4.656;2024-01-30T12:17:24;10.44;83.86
68257;DHT22;55069;51.568;4.656;2024-01-30T12:19:50;10.45;83.84
68257;DHT22;55069;51.568;4.656;2024-01-30T12:22:15;10.35;83.31
68257;DHT22;55069;51.568;4.656;2024-01-30T12:24:41;10.27;84.28
68257;DHT22;55069;51.568;4.656;2024-01-30T12:27:06;10.28;84.26
68257;DHT22;55069;51.568;4.656;2024-01-30T12:29:32;10.25;84.58
68257;DHT22;55069;51.568;4.656;2024-01-30T12:31:58;10.21;84.09
68257;DHT22;55069;51.568;4.656;2024-01-30T12:34:25;10.14;84.79
68257;DHT22;55069;51.568;4.656;2024-01-30T12:36:50;10.10;84.84
68257;DHT22;55069;51.568;4.656;2024-01-30T12:39:16;9.83;87.01
68257;DHT22;55069;51.568;4.656;2024-01-30T12:41:42;9.63;88.11
68257;DHT22;55069;51.568;4.656;2024-01-30T12:44:07;9.50;88.67
68257;DHT22;55069;51.568;4.656;2024-01-30T12:46:36;9.49;88.92
68257;DHT22;55069;51.568;4.656;2024-01-30T12:49:02;9.45;88.89
68257;DHT22;55069;51.568;4.656;2024-01-30T12:51:28;9.40;89.02
68257;DHT22;55069;51.568;4.656;2024-01-30T12:53:54;9.42;89.14
68257;DHT22;55069;51.568;4.656;2024-01-30T12:56:19;9.42;89.13
68257;DHT22;55069;51.568;4.656;2024-01-30T12:58:45;9.34;89.26
68257;DHT22;55069;51.568;4.656;2024-01-30T13:01:10;9.34;89.65
68257;DHT22;55069;51.568;4.656;2024-01-30T13:03:36;9.27;90.24
68257;DHT22;55069;51.568;4.656;2024-01-30T13:06:02;9.10;90.67
68257;DHT22;55069;51.568;4.656;2024-01-30T13:08:28;9.18;91.23
68257;DHT22;55069;51.568;4.656;2024-01-30T13:10:53;9.17;90.92
68257;DHT22;55069;51.568;4.656;2024-01-30T13:13:19;9.08;90.63
68257;DHT22;55069;51.568;4.656;2024-01-30T13:15:44;9.14;90.67
68257;DHT22;55069;51.568;4.656;2024-01-30T13:18:10;9.10;90.53
68257;DHT22;55069;51.568;4.656;2024-01-30T13:20:35;9.22;90.71
68257;DHT22;55069;51.568;4.656;2024-01-30T13:23:01;9.22;90.38
68257;DHT22;55069;51.568;4.656;2024-01-30T13:25:26;9.21;90.19
68257;DHT22;55069;51.568;4.656;2024-01-30T13:27:52;9.22;90.03
68257;DHT22;55069;51.568;4.656;2024-01-30T13:30:18;9.21;89.84
68257;DHT22;55069;51.568;4.656;2024-01-30T13:32:43;9.14;89.56
68257;DHT22;55069;51.568;4.656;2024-01-30T13:35:10;9.04;89.44
68257;DHT22;55069;51.568;4.656;2024-01-30T13:37:35;9.00;89.37
68257;DHT22;55069;51.568;4.656;2024-01-30T13:40:04;9.01;89.56
68257;DHT22;55069;51.568;4.656;2024-01-30T13:42:32;8.98;89.32
68257;DHT22;55069;51.568;4.656;2024-01-30T13:44:58;8.98;89.48
68257;DHT22;55069;51.568;4.656;2024-01-30T13:47:23;8.96;88.94
68257;DHT22;55069;51.568;4.656;2024-01-30T13:49:49;9.07;89.04
68257;DHT22;55069;51.568;4.656;2024-01-30T13:52:14;9.07;89.14
68257;DHT22;55069;51.568;4.656;2024-01-30T13:54:40;9.01;88.52
68257;DHT22;55069;51.568;4.656;2024-01-30T13:57:05;9.10;88.54
68257;DHT22;55069;51.568;4.656;2024-01-30T13:59:32;9.07;88.39
68257;DHT22;55069;51.568;4.656;2024-01-30T14:01:58;9.21;88.44
68257;DHT22;55069;51.568;4.656;2024-01-30T14:04:23;9.22;88.14
68257;DHT22;55069;51.568;4.656;2024-01-30T14:06:49;9.21;87.91
68257;DHT22;55069;51.568;4.656;2024-01-30T14:09:15;9.29;88.25
68257;DHT22;55069;51.568;4.656;2024-01-30T14:11:41;9.28;88.00
68257;DHT22;55069;51.568;4.656;2024-01-30T14:14:09;9.17;88.32
68257;DHT22;55069;51.568;4.656;2024-01-30T14:16:34;9.18;89.24
68257;DHT22;55069;51.568;4.656;2024-01-30T14:19:00;9.17;89.30
68257;DHT22;55069;51.568;4.656;2024-01-30T14:21:25;9.05;89.99
68257;DHT22;55069;51.568;4.656;2024-01-30T14:23:51;9.04;90.69
68257;DHT22;55069;51.568;4.656;2024-01-30T14:26:16;8.94;91.67
68257;DHT22;55069;51.568;4.656;2024-01-30T14:28:42;8.94;91.71
68257;DHT22;55069;51.568;4.656;2024-01-30T14:31:09;8.83;92.12
68257;DHT22;55069;51.568;4.656;2024-01-30T14:33:34;8.79;93.08
68257;DHT22;55069;51.568;4.656;2024-01-30T14:36:00;8.62;93.82
68257;DHT22;55069;51.568;4.656;2024-01-30T14:38:25;8.62;94.27
68257;DHT22;55069;51.568;4.656;2024-01-30T14:40:51;8.49;94.78
68257;DHT22;55069;51.568;4.656;2024-01-30T14:43:16;8.42;95.08
68257;DHT22;55069;51.568;4.656;2024-01-30T14:45:42;8.26;95.42
68257;DHT22;55069;51.568;4.656;2024-01-30T14:48:11;8.29;95.81
68257;DHT22;55069;51.568;4.656;2024-01-30T14:50:36;8.29;95.61
68257;DHT22;55069;51.568;4.656;2024-01-30T14:53:02;8.24;95.59
68257;DHT22;55069;51.568;4.656;2024-01-30T14:55:28;8.29;95.72
68257;DHT22;55069;51.568;4.656;2024-01-30T14:57:53;8.25;95.65
68257;DHT22;55069;51.568;4.656;2024-01-30T15:00:19;8.16;95.44
68257;DHT22;55069;51.568;4.656;2024-01-30T15:02:45;8.20;95.58
68257;DHT22;55069;51.568;4.656;2024-01-30T15:05:12;8.11;95.70
68257;DHT22;55069;51.568;4.656;2024-01-30T15:07:38;8.18;95.72
68257;DHT22;55069;51.568;4.656;2024-01-30T15:10:04;8.14;95.83
68257;DHT22;55069;51.568;4.656;2024-01-30T15:12:29;8.21;95.78
68257;DHT22;55069;51.568;4.656;2024-01-30T15:14:55;8.15;95.78
68257;DHT22;55069;51.568;4.656;2024-01-30T15:17:20;8.25;95.70
68257;DHT22;55069;51.568;4.656;2024-01-30T15:19:48;8.08;95.61
68257;DHT22;55069;51.568;4.656;2024-01-30T15:22:16;8.09;95.57
68257;DHT22;55069;51.568;4.656;2024-01-30T15:24:41;8.11;95.95
68257;DHT22;55069;51.568;4.656;2024-01-30T15:27:07;8.05;95.89
68257;DHT22;55069;51.568;4.656;2024-01-30T15:29:33;8.11;96.06
68257;DHT22;55069;51.568;4.656;2024-01-30T15:31:58;8.14;95.91
68257;DHT22;55069;51.568;4.656;2024-01-30T15:34:24;8.06;95.76
68257;DHT22;55069;51.568;4.656;2024-01-30T15:36:50;8.08;95.89
68257;DHT22;55069;51.568;4.656;2024-01-30T15:39:15;8.01;95.68
68257;DHT22;55069;51.568;4.656;2024-01-30T15:41:42;7.99;95.86
68257;DHT22;55069;51.568;4.656;2024-01-30T15:44:08;8.01;95.92